sensor_id;sensor_type;location;lat;lon;timestamp;pressure;altitude;pressure_sealevel;temperature;humidity
19783;BME280;10051;40.294;-3.754;2023-05-24T00:02:20;93971.34;;;16.16;96.42
19783;BME280;10051;40.294;-3.754;2023-05-24T00:04:48;93997.81;;;16.33;96.06
19783;BME280;10051;40.294;-3.754;2023-05-24T00:07:14;94001.06;;;16.39;95.44
19783;BME280;10051;40.294;-3.754;2023-05-24T00:09:41;93976.03;;;16.19;95.18
19783;BME280;10051;40.294;-3.754;2023-05-24T00:12:07;93978.66;;;16.19;96.27
19783;BME280;10051;40.294;-3.754;2023-05-24T00:14:32;93958.16;;;15.98;96.75
19783;BME280;10051;40.294;-3.754;2023-05-24T00:16:58;93979.19;;;16.12;96.11
19783;BME280;10051;40.294;-3.754;2023-05-24T00:19:24;93979.94;;;16.13;95.72
19783;BME280;10051;40.294;-3.754;2023-05-24T00:21:50;93953.81;;;15.94;95.48
19783;BME280;10051;40.294;-3.754;2023-05-24T00:24:16;94001.09;;;16.30;95.52
19783;BME280;10051;40.294;-3.754;2023-05-24T00:26:41;93945.03;;;16.02;96.74
19783;BME280;10051;40.294;-3.754;2023-05-24T00:29:07;93983.16;;;16.27;96.33
19783;BME280;10051;40.294;-3.754;2023-05-24T00:31:33;93982.22;;;16.32;95.43
19783;BME280;10051;40.294;-3.754;2023-05-24T00:33:58;93971.00;;;16.26;95.58
19783;BME280;10051;40.294;-3.754;2023-05-24T00:36:24;93966.50;;;16.18;95.13
19783;BME280;10051;40.294;-3.754;2023-05-24T00:38:50;93907.81;;;15.81;94.92
19783;BME280;10051;40.294;-3.754;2023-05-24T00:41:17;93951.16;;;15.94;96.00
19783;BME280;10051;40.294;-3.754;2023-05-24T00:43:42;93964.53;;;16.06;95.46
19783;BME280;10051;40.294;-3.754;2023-05-24T00:46:15;93962.66;;;16.07;94.97
19783;BME280;10051;40.294;-3.754;2023-05-24T00:48:41;93974.63;;;16.13;95.72
19783;BME280;10051;40.294;-3.754;2023-05-24T00:51:07;93958.91;;;16.08;94.88
19783;BME280;10051;40.294;-3.754;2023-05-24T00:53:34;93950.50;;;16.05;93.69
19783;BME280;10051;40.294;-3.754;2023-05-24T00:56:02;93951.91;;;16.03;93.87
19783;BME280;10051;40.294;-3.754;2023-05-24T00:58:29;93950.50;;;15.97;92.69
19783;BME280;10051;40.294;-3.754;2023-05-24T01:01:00;93991.47;;;16.26;92.68
19783;BME280;10051;40.294;-3.754;2023-05-24T01:03:26;93954.44;;;15.99;92.34
19783;BME280;10051;40.294;-3.754;2023-05-24T01:05:59;93992.38;;;16.30;91.84
19783;BME280;10051;40.294;-3.754;2023-05-24T01:08:45;93899.31;;;15.66;92.26
19783;BME280;10051;40.294;-3.754;2023-05-24T01:19:13;93972.09;;;15.86;95.02
19783;BME280;10051;40.294;-3.754;2023-05-24T01:22:11;93970.03;;;15.83;94.84
19783;BME280;10051;40.294;-3.754;2023-05-24T01:25:02;93919.13;;;15.60;93.69
19783;BME280;10051;40.294;-3.754;2023-05-24T01:27:30;93961.63;;;15.90;93.12
19783;BME280;10051;40.294;-3.754;2023-05-24T01:29:59;93976.44;;;15.91;93.23
19783;BME280;10051;40.294;-3.754;2023-05-24T01:32:25;93921.47;;;15.35;93.56
19783;BME280;10051;40.294;-3.754;2023-05-24T01:34:51;93894.09;;;15.13;92.97
19783;BME280;10051;40.294;-3.754;2023-05-24T01:37:17;93971.47;;;15.72;92.45
19783;BME280;10051;40.294;-3.754;2023-05-24T01:39:42;93969.31;;;15.65;93.49
19783;BME280;10051;40.294;-3.754;2023-05-24T01:42:23;93959.16;;;15.58;93.80
19783;BME280;10051;40.294;-3.754;2023-05-24T01:45:04;93965.25;;;15.59;93.72
19783;BME280;10051;40.294;-3.754;2023-05-24T01:48:03;93959.78;;;15.73;91.90
19783;BME280;10051;40.294;-3.754;2023-05-24T01:50:43;93934.84;;;15.65;91.50
19783;BME280;10051;40.294;-3.754;2023-05-24T01:53:13;93949.94;;;15.82;91.48
19783;BME280;10051;40.294;-3.754;2023-05-24T01:55:42;93889.41;;;15.37;91.06
19783;BME280;10051;40.294;-3.754;2023-05-24T01:58:09;93937.34;;;15.61;91.24
19783;BME280;10051;40.294;-3.754;2023-05-24T02:00:37;93955.69;;;15.84;89.42
19783;BME280;10051;40.294;-3.754;2023-05-24T02:03:03;93865.88;;;15.26;90.50
19783;BME280;10051;40.294;-3.754;2023-05-24T02:05:31;93855.59;;;15.25;90.98
19783;BME280;10051;40.294;-3.754;2023-05-24T02:07:57;93937.94;;;15.76;91.13
19783;BME280;10051;40.294;-3.754;2023-05-24T02:10:22;93808.47;;;15.00;90.24
19783;BME280;10051;40.294;-3.754;2023-05-24T02:12:48;93937.44;;;15.83;90.55
19783;BME280;10051;40.294;-3.754;2023-05-24T02:15:13;93891.25;;;15.36;90.85
19783;BME280;10051;40.294;-3.754;2023-05-24T02:17:40;93890.50;;;15.36;91.15
19783;BME280;10051;40.294;-3.754;2023-05-24T02:20:07;93922.25;;;15.44;92.36
19783;BME280;10051;40.294;-3.754;2023-05-24T02:22:33;93934.72;;;15.53;91.11
19783;BME280;10051;40.294;-3.754;2023-05-24T02:24:59;93947.81;;;15.58;91.70
19783;BME280;10051;40.294;-3.754;2023-05-24T02:27:25;93887.25;;;15.12;91.54
19783;BME280;10051;40.294;-3.754;2023-05-24T02:29:50;93935.00;;;15.60;91.26
19783;BME280;10051;40.294;-3.754;2023-05-24T02:32:17;93861.88;;;15.11;90.81
19783;BME280;10051;40.294;-3.754;2023-05-24T02:34:43;93873.88;;;15.00;92.00
19783;BME280;10051;40.294;-3.754;2023-05-24T02:37:09;93873.41;;;14.80;92.34
19783;BME280;10051;40.294;-3.754;2023-05-24T02:39:42;93934.16;;;15.21;92.98
19783;BME280;10051;40.294;-3.754;2023-05-24T02:42:07;93943.00;;;15.25;93.59
19783;BME280;10051;40.294;-3.754;2023-05-24T02:44:33;93943.78;;;15.34;92.22
19783;BME280;10051;40.294;-3.754;2023-05-24T02:46:59;93902.69;;;15.10;91.44
19783;BME280;10051;40.294;-3.754;2023-05-24T02:49:25;93922.47;;;15.22;91.48
19783;BME280;10051;40.294;-3.754;2023-05-24T02:51:50;93952.03;;;15.41;91.12
19783;BME280;10051;40.294;-3.754;2023-05-24T02:54:17;93905.31;;;15.10;91.18
19783;BME280;10051;40.294;-3.754;2023-05-24T02:56:43;93905.97;;;14.98;91.67
19783;BME280;10051;40.294;-3.754;2023-05-24T02:59:08;93957.78;;;15.43;91.35
19783;BME280;10051;40.294;-3.754;2023-05-24T03:01:34;93910.44;;;15.07;91.16
19783;BME280;10051;40.294;-3.754;2023-05-24T03:03:59;93957.31;;;15.24;92.10
19783;BME280;10051;40.294;-3.754;2023-05-24T03:06:25;93903.44;;;14.84;92.45
19783;BME280;10051;40.294;-3.754;2023-05-24T03:08:51;93937.25;;;15.23;91.46
19783;BME280;10051;40.294;-3.754;2023-05-24T03:11:16;93963.56;;;15.28;92.16
19783;BME280;10051;40.294;-3.754;2023-05-24T03:13:46;93929.94;;;15.20;92.30
19783;BME280;10051;40.294;-3.754;2023-05-24T03:16:12;93941.13;;;15.25;92.30
19783;BME280;10051;40.294;-3.754;2023-05-24T03:18:38;93914.97;;;15.15;92.26
19783;BME280;10051;40.294;-3.754;2023-05-24T03:21:04;93968.06;;;15.54;91.18
19783;BME280;10051;40.294;-3.754;2023-05-24T03:23:30;93916.38;;;15.12;92.91
19783;BME280;10051;40.294;-3.754;2023-05-24T03:25:55;93948.13;;;15.30;94.24
19783;BME280;10051;40.294;-3.754;2023-05-24T03:28:21;93932.91;;;15.09;93.90
19783;BME280;10051;40.294;-3.754;2023-05-24T03:30:47;93966.84;;;15.34;95.12
19783;BME280;10051;40.294;-3.754;2023-05-24T03:33:13;93960.91;;;15.28;94.54
19783;BME280;10051;40.294;-3.754;2023-05-24T03:35:38;93965.44;;;15.27;94.14
19783;BME280;10051;40.294;-3.754;2023-05-24T03:38:04;93885.06;;;14.70;95.19
19783;BME280;10051;40.294;-3.754;2023-05-24T03:40:29;93866.38;;;14.67;94.12
19783;BME280;10051;40.294;-3.754;2023-05-24T03:42:58;93969.94;;;15.44;93.52
19783;BME280;10051;40.294;-3.754;2023-05-24T03:45:23;93938.16;;;15.27;92.12
19783;BME280;10051;40.294;-3.754;2023-05-24T03:47:49;93929.31;;;15.14;92.76
19783;BME280;10051;40.294;-3.754;2023-05-24T03:50:14;93987.88;;;15.30;93.80
19783;BME280;10051;40.294;-3.754;2023-05-24T03:52:41;93895.66;;;14.79;93.20
19783;BME280;10051;40.294;-3.754;2023-05-24T03:55:07;93919.97;;;14.90;93.81
19783;BME280;10051;40.294;-3.754;2023-05-24T03:57:32;93922.59;;;15.08;92.70
19783;BME280;10051;40.294;-3.754;2023-05-24T03:59:58;93962.78;;;15.36;92.77
19783;BME280;10051;40.294;-3.754;2023-05-24T04:02:25;93925.56;;;15.15;91.81
19783;BME280;10051;40.294;-3.754;2023-05-24T04:04:51;93892.88;;;14.93;91.70
19783;BME280;10051;40.294;-3.754;2023-05-24T04:07:16;93972.44;;;15.50;91.15
19783;BME280;10051;40.294;-3.754;2023-05-24T04:09:42;93909.03;;;15.18;90.44
19783;BME280;10051;40.294;-3.754;2023-05-24T04:12:07;93941.28;;;15.46;89.85
19783;BME280;10051;40.294;-3.754;2023-05-24T04:14:33;93961.66;;;15.64;89.08
19783;BME280;10051;40.294;-3.754;2023-05-24T04:16:59;93921.97;;;15.28;88.99
19783;BME280;10051;40.294;-3.754;2023-05-24T04:19:28;93965.72;;;15.52;90.07
19783;BME280;10051;40.294;-3.754;2023-05-24T04:21:54;93955.34;;;15.21;91.27
19783;BME280;10051;40.294;-3.754;2023-05-24T04:24:19;93923.84;;;14.84;92.98
19783;BME280;10051;40.294;-3.754;2023-05-24T04:26:45;93964.97;;;14.99;94.23
19783;BME280;10051;40.294;-3.754;2023-05-24T04:29:12;93992.84;;;15.14;93.51
19783;BME280;10051;40.294;-3.754;2023-05-24T04:31:39;93964.19;;;15.16;93.30
19783;BME280;10051;40.294;-3.754;2023-05-24T04:34:08;93960.00;;;15.15;93.09
19783;BME280;10051;40.294;-3.754;2023-05-24T04:36:37;93965.13;;;15.29;91.97
19783;BME280;10051;40.294;-3.754;2023-05-24T04:39:03;93968.25;;;15.40;91.74
19783;BME280;10051;40.294;-3.754;2023-05-24T04:41:30;93953.91;;;15.23;91.35
19783;BME280;10051;40.294;-3.754;2023-05-24T04:43:57;93975.38;;;15.48;91.39
19783;BME280;10051;40.294;-3.754;2023-05-24T04:46:25;93918.56;;;14.93;92.05
19783;BME280;10051;40.294;-3.754;2023-05-24T04:48:51;93995.81;;;15.39;92.36
19783;BME280;10051;40.294;-3.754;2023-05-24T04:51:17;93969.66;;;15.20;92.15
19783;BME280;10051;40.294;-3.754;2023-05-24T04:53:43;93978.84;;;15.40;91.50
19783;BME280;10051;40.294;-3.754;2023-05-24T04:56:09;93975.88;;;15.41;91.24
19783;BME280;10051;40.294;-3.754;2023-05-24T04:58:34;93998.16;;;15.58;90.58
19783;BME280;10051;40.294;-3.754;2023-05-24T05:01:00;94014.16;;;15.70;90.37
19783;BME280;10051;40.294;-3.754;2023-05-24T05:03:26;93976.94;;;15.49;90.16
19783;BME280;10051;40.294;-3.754;2023-05-24T05:05:52;93987.53;;;15.58;89.43
19783;BME280;10051;40.294;-3.754;2023-05-24T05:08:18;93929.75;;;15.25;90.10
19783;BME280;10051;40.294;-3.754;2023-05-24T05:10:44;93945.03;;;15.28;90.40
19783;BME280;10051;40.294;-3.754;2023-05-24T05:13:10;94011.56;;;15.53;91.62
19783;BME280;10051;40.294;-3.754;2023-05-24T05:15:36;93909.69;;;14.97;91.97
19783;BME280;10051;40.294;-3.754;2023-05-24T05:18:01;94019.00;;;15.68;91.17
19783;BME280;10051;40.294;-3.754;2023-05-24T05:20:27;93965.13;;;15.46;90.36
19783;BME280;10051;40.294;-3.754;2023-05-24T05:22:52;93941.91;;;15.17;90.86
19783;BME280;10051;40.294;-3.754;2023-05-24T05:25:18;94015.59;;;15.59;91.14
19783;BME280;10051;40.294;-3.754;2023-05-24T05:27:44;94019.03;;;15.59;90.82
19783;BME280;10051;40.294;-3.754;2023-05-24T05:30:10;93991.75;;;15.41;90.55
19783;BME280;10051;40.294;-3.754;2023-05-24T05:32:36;93993.19;;;15.39;90.18
19783;BME280;10051;40.294;-3.754;2023-05-24T05:35:02;94014.66;;;15.46;90.68
19783;BME280;10051;40.294;-3.754;2023-05-24T05:37:28;93970.75;;;15.01;91.77
19783;BME280;10051;40.294;-3.754;2023-05-24T05:39:54;93998.78;;;15.11;92.10
19783;BME280;10051;40.294;-3.754;2023-05-24T05:42:19;94021.69;;;15.15;93.48
19783;BME280;10051;40.294;-3.754;2023-05-24T05:44:45;94052.06;;;15.27;94.24
19783;BME280;10051;40.294;-3.754;2023-05-24T05:47:11;94031.47;;;15.15;94.09
19783;BME280;10051;40.294;-3.754;2023-05-24T05:49:36;94026.34;;;15.10;93.56
19783;BME280;10051;40.294;-3.754;2023-05-24T05:52:03;94035.88;;;15.20;93.82
19783;BME280;10051;40.294;-3.754;2023-05-24T05:54:29;94043.19;;;15.23;94.07
19783;BME280;10051;40.294;-3.754;2023-05-24T05:56:55;94054.88;;;15.30;93.44
19783;BME280;10051;40.294;-3.754;2023-05-24T05:59:21;93973.81;;;14.77;93.42
19783;BME280;10051;40.294;-3.754;2023-05-24T06:01:47;94010.44;;;15.01;93.94
19783;BME280;10051;40.294;-3.754;2023-05-24T06:04:14;94045.66;;;15.28;93.67
19783;BME280;10051;40.294;-3.754;2023-05-24T06:06:40;94048.97;;;15.42;92.51
19783;BME280;10051;40.294;-3.754;2023-05-24T06:09:06;94048.19;;;15.51;91.94
19783;BME280;10051;40.294;-3.754;2023-05-24T06:11:32;94032.28;;;15.51;91.08
19783;BME280;10051;40.294;-3.754;2023-05-24T06:13:57;93993.31;;;15.25;90.82
19783;BME280;10051;40.294;-3.754;2023-05-24T06:16:23;94006.56;;;15.42;90.55
19783;BME280;10051;40.294;-3.754;2023-05-24T06:18:48;94050.34;;;15.84;89.12
19783;BME280;10051;40.294;-3.754;2023-05-24T06:21:15;93972.59;;;15.44;88.27
19783;BME280;10051;40.294;-3.754;2023-05-24T06:23:41;94012.19;;;15.67;87.60
19783;BME280;10051;40.294;-3.754;2023-05-24T06:26:07;93978.69;;;15.45;87.74
19783;BME280;10051;40.294;-3.754;2023-05-24T06:28:36;94036.63;;;15.82;88.10
19783;BME280;10051;40.294;-3.754;2023-05-24T06:31:05;94040.84;;;16.00;87.13
19783;BME280;10051;40.294;-3.754;2023-05-24T06:33:30;94050.47;;;16.05;85.76
19783;BME280;10051;40.294;-3.754;2023-05-24T06:35:59;94044.88;;;15.98;85.69
19783;BME280;10051;40.294;-3.754;2023-05-24T06:38:24;94057.81;;;16.08;85.75
19783;BME280;10051;40.294;-3.754;2023-05-24T06:40:52;94068.38;;;16.17;85.70
19783;BME280;10051;40.294;-3.754;2023-05-24T06:43:17;94041.78;;;15.87;86.25
19783;BME280;10051;40.294;-3.754;2023-05-24T06:45:44;94080.78;;;15.95;87.41
19783;BME280;10051;40.294;-3.754;2023-05-24T06:48:10;94069.22;;;15.91;86.62
19783;BME280;10051;40.294;-3.754;2023-05-24T06:50:36;94052.22;;;15.74;86.40
19783;BME280;10051;40.294;-3.754;2023-05-24T06:53:01;94089.03;;;16.02;86.21
19783;BME280;10051;40.294;-3.754;2023-05-24T06:55:31;94073.31;;;15.88;85.55
19783;BME280;10051;40.294;-3.754;2023-05-24T06:57:57;94072.81;;;15.95;85.49
19783;BME280;10051;40.294;-3.754;2023-05-24T07:00:22;94075.16;;;16.05;85.57
19783;BME280;10051;40.294;-3.754;2023-05-24T07:02:48;94085.72;;;16.14;84.48
19783;BME280;10051;40.294;-3.754;2023-05-24T07:05:13;94072.03;;;16.03;83.94
19783;BME280;10051;40.294;-3.754;2023-05-24T07:07:42;94064.69;;;16.00;84.22
19783;BME280;10051;40.294;-3.754;2023-05-24T07:10:09;94043.03;;;15.89;83.88
19783;BME280;10051;40.294;-3.754;2023-05-24T07:12:36;94066.56;;;16.00;84.01
19783;BME280;10051;40.294;-3.754;2023-05-24T07:15:05;94050.97;;;15.98;84.08
19783;BME280;10051;40.294;-3.754;2023-05-24T07:17:31;94022.13;;;15.70;83.13
19783;BME280;10051;40.294;-3.754;2023-05-24T07:19:58;94066.25;;;16.01;83.33
19783;BME280;10051;40.294;-3.754;2023-05-24T07:22:23;94069.06;;;16.05;83.63
19783;BME280;10051;40.294;-3.754;2023-05-24T07:24:51;94082.13;;;16.19;83.15
19783;BME280;10051;40.294;-3.754;2023-05-24T07:27:17;94071.25;;;15.94;83.91
19783;BME280;10051;40.294;-3.754;2023-05-24T07:29:42;94031.34;;;15.73;83.89
19783;BME280;10051;40.294;-3.754;2023-05-24T07:32:08;94091.81;;;16.15;82.69
19783;BME280;10051;40.294;-3.754;2023-05-24T07:34:34;94053.47;;;16.03;82.69
19783;BME280;10051;40.294;-3.754;2023-05-24T07:37:00;94084.16;;;16.31;82.76
19783;BME280;10051;40.294;-3.754;2023-05-24T07:39:26;94097.50;;;16.43;82.08
19783;BME280;10051;40.294;-3.754;2023-05-24T07:41:53;94094.69;;;16.48;82.82
19783;BME280;10051;40.294;-3.754;2023-05-24T07:44:18;94068.34;;;16.34;81.64
19783;BME280;10051;40.294;-3.754;2023-05-24T07:46:44;94083.03;;;16.32;81.49
19783;BME280;10051;40.294;-3.754;2023-05-24T07:49:10;94096.44;;;16.35;81.41
19783;BME280;10051;40.294;-3.754;2023-05-24T07:51:36;94095.66;;;16.35;81.22
19783;BME280;10051;40.294;-3.754;2023-05-24T07:54:03;94105.81;;;16.42;81.00
19783;BME280;10051;40.294;-3.754;2023-05-24T07:56:29;94054.97;;;16.22;80.48
19783;BME280;10051;40.294;-3.754;2023-05-24T07:58:54;94065.38;;;16.36;78.99
19783;BME280;10051;40.294;-3.754;2023-05-24T08:01:27;94068.78;;;16.45;79.34
19783;BME280;10051;40.294;-3.754;2023-05-24T08:03:53;94098.94;;;16.79;79.61
19783;BME280;10051;40.294;-3.754;2023-05-24T08:06:21;94111.00;;;16.77;79.79
19783;BME280;10051;40.294;-3.754;2023-05-24T08:08:47;94039.75;;;16.40;80.04
19783;BME280;10051;40.294;-3.754;2023-05-24T08:11:12;94107.41;;;16.73;80.00
19783;BME280;10051;40.294;-3.754;2023-05-24T08:13:38;94090.31;;;16.53;80.57
19783;BME280;10051;40.294;-3.754;2023-05-24T08:16:03;94102.88;;;16.73;80.41
19783;BME280;10051;40.294;-3.754;2023-05-24T08:18:29;94074.16;;;16.67;80.09
19783;BME280;10051;40.294;-3.754;2023-05-24T08:20:55;94081.72;;;16.86;79.15
19783;BME280;10051;40.294;-3.754;2023-05-24T08:23:20;94105.91;;;17.02;79.86
19783;BME280;10051;40.294;-3.754;2023-05-24T08:25:46;94114.28;;;17.13;79.40
19783;BME280;10051;40.294;-3.754;2023-05-24T08:28:11;94091.88;;;16.92;77.94
19783;BME280;10051;40.294;-3.754;2023-05-24T08:30:37;94104.06;;;16.93;79.00
19783;BME280;10051;40.294;-3.754;2023-05-24T08:33:02;94104.34;;;16.92;79.17
19783;BME280;10051;40.294;-3.754;2023-05-24T08:35:28;94108.00;;;17.17;77.72
19783;BME280;10051;40.294;-3.754;2023-05-24T08:37:54;94095.00;;;16.94;78.50
19783;BME280;10051;40.294;-3.754;2023-05-24T08:40:19;94110.84;;;17.12;77.75
19783;BME280;10051;40.294;-3.754;2023-05-24T08:42:45;94106.81;;;17.06;77.11
19783;BME280;10051;40.294;-3.754;2023-05-24T08:45:13;94105.53;;;17.12;77.06
19783;BME280;10051;40.294;-3.754;2023-05-24T08:47:39;94099.66;;;17.28;76.51
19783;BME280;10051;40.294;-3.754;2023-05-24T08:50:06;94084.06;;;17.47;75.55
19783;BME280;10051;40.294;-3.754;2023-05-24T08:52:32;94076.69;;;17.53;75.34
19783;BME280;10051;40.294;-3.754;2023-05-24T08:54:58;94107.84;;;17.86;75.30
19783;BME280;10051;40.294;-3.754;2023-05-24T08:57:27;94081.44;;;17.81;74.49
19783;BME280;10051;40.294;-3.754;2023-05-24T08:59:55;94108.88;;;18.15;72.64
19783;BME280;10051;40.294;-3.754;2023-05-24T09:02:21;94064.44;;;17.94;72.03
19783;BME280;10051;40.294;-3.754;2023-05-24T09:04:49;94097.72;;;18.22;71.56
19783;BME280;10051;40.294;-3.754;2023-05-24T09:07:17;94098.75;;;18.42;72.62
19783;BME280;10051;40.294;-3.754;2023-05-24T09:09:46;94083.47;;;18.51;71.06
19783;BME280;10051;40.294;-3.754;2023-05-24T09:12:16;94103.56;;;18.86;69.38
19783;BME280;10051;40.294;-3.754;2023-05-24T09:14:45;94100.50;;;18.96;67.28
19783;BME280;10051;40.294;-3.754;2023-05-24T09:17:11;94093.72;;;18.86;69.19
19783;BME280;10051;40.294;-3.754;2023-05-24T09:19:43;94098.28;;;18.98;67.39
19783;BME280;10051;40.294;-3.754;2023-05-24T09:22:12;94099.41;;;18.97;66.73
19783;BME280;10051;40.294;-3.754;2023-05-24T09:24:57;94096.63;;;19.19;66.14
19783;BME280;10051;40.294;-3.754;2023-05-24T09:27:24;94113.34;;;19.44;66.02
19783;BME280;10051;40.294;-3.754;2023-05-24T09:30:00;94105.44;;;19.60;65.74
19783;BME280;10051;40.294;-3.754;2023-05-24T09:32:31;94101.34;;;19.63;66.35
19783;BME280;10051;40.294;-3.754;2023-05-24T09:34:57;94108.41;;;19.71;65.73
19783;BME280;10051;40.294;-3.754;2023-05-24T09:37:24;94115.69;;;19.86;64.87
19783;BME280;10051;40.294;-3.754;2023-05-24T09:39:52;94095.91;;;20.00;64.69
19783;BME280;10051;40.294;-3.754;2023-05-24T09:42:22;94087.50;;;20.14;63.88
19783;BME280;10051;40.294;-3.754;2023-05-24T09:44:59;94109.56;;;20.27;63.80
19783;BME280;10051;40.294;-3.754;2023-05-24T09:47:30;94110.19;;;20.36;63.72
19783;BME280;10051;40.294;-3.754;2023-05-24T09:49:55;94106.59;;;20.44;62.32
19783;BME280;10051;40.294;-3.754;2023-05-24T09:52:21;94105.91;;;20.47;61.60
19783;BME280;10051;40.294;-3.754;2023-05-24T09:54:46;94102.72;;;20.58;59.01
19783;BME280;10051;40.294;-3.754;2023-05-24T09:57:15;94108.03;;;20.58;60.32
19783;BME280;10051;40.294;-3.754;2023-05-24T09:59:41;94112.41;;;20.78;60.39
19783;BME280;10051;40.294;-3.754;2023-05-24T10:02:09;94113.28;;;20.83;60.06
19783;BME280;10051;40.294;-3.754;2023-05-24T10:04:36;94086.56;;;20.83;60.10
19783;BME280;10051;40.294;-3.754;2023-05-24T10:07:02;94116.00;;;21.02;60.85
19783;BME280;10051;40.294;-3.754;2023-05-24T10:09:28;94099.22;;;21.02;57.81
19783;BME280;10051;40.294;-3.754;2023-05-24T10:12:04;94096.38;;;20.94;59.40
19783;BME280;10051;40.294;-3.754;2023-05-24T10:14:32;94102.22;;;21.00;60.02
19783;BME280;10051;40.294;-3.754;2023-05-24T10:16:59;94081.81;;;20.92;60.51
19783;BME280;10051;40.294;-3.754;2023-05-24T10:19:25;94088.34;;;20.94;60.09
19783;BME280;10051;40.294;-3.754;2023-05-24T10:21:52;94109.13;;;21.01;57.55
19783;BME280;10051;40.294;-3.754;2023-05-24T10:24:23;94113.28;;;20.83;58.11
19783;BME280;10051;40.294;-3.754;2023-05-24T10:26:49;94099.44;;;20.48;58.62
19783;BME280;10051;40.294;-3.754;2023-05-24T10:29:26;94094.09;;;20.48;59.24
19783;BME280;10051;40.294;-3.754;2023-05-24T10:31:57;94086.34;;;20.43;59.02
19783;BME280;10051;40.294;-3.754;2023-05-24T10:34:23;94106.50;;;20.57;59.89
19783;BME280;10051;40.294;-3.754;2023-05-24T10:36:51;94096.50;;;20.54;58.58
19783;BME280;10051;40.294;-3.754;2023-05-24T10:39:20;94101.56;;;20.43;58.62
19783;BME280;10051;40.294;-3.754;2023-05-24T10:41:45;94072.78;;;20.20;59.34
19783;BME280;10051;40.294;-3.754;2023-05-24T10:44:17;94070.25;;;20.11;59.15
19783;BME280;10051;40.294;-3.754;2023-05-24T10:47:05;94103.47;;;20.26;59.79
19783;BME280;10051;40.294;-3.754;2023-05-24T10:49:32;94098.00;;;20.23;59.77
19783;BME280;10051;40.294;-3.754;2023-05-24T10:52:05;94085.69;;;20.18;60.03
19783;BME280;10051;40.294;-3.754;2023-05-24T10:54:31;94080.69;;;20.16;60.08
19783;BME280;10051;40.294;-3.754;2023-05-24T10:57:00;94066.97;;;20.02;60.96
19783;BME280;10051;40.294;-3.754;2023-05-24T10:59:32;94074.16;;;20.14;61.55
19783;BME280;10051;40.294;-3.754;2023-05-24T11:02:03;94093.16;;;20.12;61.16
19783;BME280;10051;40.294;-3.754;2023-05-24T11:04:31;94080.09;;;20.07;60.19
19783;BME280;10051;40.294;-3.754;2023-05-24T11:07:00;94080.84;;;20.08;60.22
19783;BME280;10051;40.294;-3.754;2023-05-24T11:09:27;94071.44;;;19.98;60.35
19783;BME280;10051;40.294;-3.754;2023-05-24T11:14:29;94081.00;;;19.86;62.37
19783;BME280;10051;40.294;-3.754;2023-05-24T11:16:57;94050.84;;;19.70;60.79
19783;BME280;10051;40.294;-3.754;2023-05-24T11:21:56;94079.25;;;19.78;61.54
19783;BME280;10051;40.294;-3.754;2023-05-24T11:24:26;94060.75;;;19.69;62.51
19783;BME280;10051;40.294;-3.754;2023-05-24T11:26:51;94073.03;;;19.74;62.56
19783;BME280;10051;40.294;-3.754;2023-05-24T11:29:18;94082.03;;;19.82;61.48
19783;BME280;10051;40.294;-3.754;2023-05-24T11:31:54;94064.13;;;19.82;61.29
19783;BME280;10051;40.294;-3.754;2023-05-24T11:34:22;94060.09;;;20.01;61.27
19783;BME280;10051;40.294;-3.754;2023-05-24T11:36:49;94037.53;;;19.98;60.32
19783;BME280;10051;40.294;-3.754;2023-05-24T11:39:17;94077.00;;;20.21;59.93
19783;BME280;10051;40.294;-3.754;2023-05-24T11:41:43;94055.50;;;20.30;60.18
19783;BME280;10051;40.294;-3.754;2023-05-24T11:44:10;94049.91;;;20.51;58.23
19783;BME280;10051;40.294;-3.754;2023-05-24T11:46:38;94061.88;;;20.73;58.09
19783;BME280;10051;40.294;-3.754;2023-05-24T11:49:04;94062.94;;;20.85;57.34
19783;BME280;10051;40.294;-3.754;2023-05-24T11:51:34;94056.13;;;20.87;57.01
19783;BME280;10051;40.294;-3.754;2023-05-24T11:54:00;94054.84;;;20.97;57.92
19783;BME280;10051;40.294;-3.754;2023-05-24T11:56:28;94050.91;;;21.10;56.24
19783;BME280;10051;40.294;-3.754;2023-05-24T12:01:35;94048.72;;;21.32;55.31
19783;BME280;10051;40.294;-3.754;2023-05-24T12:04:04;94051.13;;;21.37;53.69
19783;BME280;10051;40.294;-3.754;2023-05-24T12:06:48;94035.84;;;21.38;53.48
19783;BME280;10051;40.294;-3.754;2023-05-24T12:09:14;94013.88;;;21.48;53.80
19783;BME280;10051;40.294;-3.754;2023-05-24T12:11:41;94037.22;;;21.67;53.25
19783;BME280;10051;40.294;-3.754;2023-05-24T12:14:28;94014.13;;;21.79;51.20
19783;BME280;10051;40.294;-3.754;2023-05-24T12:16:57;94029.31;;;21.94;51.26
19783;BME280;10051;40.294;-3.754;2023-05-24T12:19:24;94017.22;;;21.81;50.17
19783;BME280;10051;40.294;-3.754;2023-05-24T12:21:55;94021.66;;;21.93;50.79
19783;BME280;10051;40.294;-3.754;2023-05-24T12:24:22;94002.19;;;21.96;50.44
19783;BME280;10051;40.294;-3.754;2023-05-24T12:26:48;93986.34;;;21.87;51.37
19783;BME280;10051;40.294;-3.754;2023-05-24T12:29:15;94020.69;;;22.24;50.61
19783;BME280;10051;40.294;-3.754;2023-05-24T12:31:43;93996.56;;;22.24;50.22
19783;BME280;10051;40.294;-3.754;2023-05-24T12:34:19;93982.69;;;22.42;49.82
19783;BME280;10051;40.294;-3.754;2023-05-24T12:36:48;93998.47;;;22.70;50.21
19783;BME280;10051;40.294;-3.754;2023-05-24T12:39:26;93986.00;;;22.82;47.15
19783;BME280;10051;40.294;-3.754;2023-05-24T12:42:01;93986.34;;;22.80;47.44
19783;BME280;10051;40.294;-3.754;2023-05-24T12:44:33;93976.41;;;22.81;47.47
19783;BME280;10051;40.294;-3.754;2023-05-24T12:47:00;93976.41;;;22.81;46.93
19783;BME280;10051;40.294;-3.754;2023-05-24T12:49:26;93941.78;;;22.68;46.97
19783;BME280;10051;40.294;-3.754;2023-05-24T12:51:53;93980.38;;;22.91;46.15
19783;BME280;10051;40.294;-3.754;2023-05-24T12:54:23;93990.47;;;23.01;45.98
19783;BME280;10051;40.294;-3.754;2023-05-24T12:56:49;93998.22;;;23.06;46.10
19783;BME280;10051;40.294;-3.754;2023-05-24T12:59:15;93974.56;;;22.85;44.61
19783;BME280;10051;40.294;-3.754;2023-05-24T13:01:41;93982.75;;;22.96;44.55
19783;BME280;10051;40.294;-3.754;2023-05-24T13:04:07;93956.94;;;22.84;44.34
19783;BME280;10051;40.294;-3.754;2023-05-24T13:06:35;93979.31;;;22.95;44.56
19783;BME280;10051;40.294;-3.754;2023-05-24T13:09:01;93959.34;;;22.93;44.45